sensor_id;sensor_type;location;lat;lon;timestamp;P1;durP1;ratioP1;P2;durP2;ratioP2
32236;SDS011;18726;44.732;10.550;2022-12-20T00:01:09;65.38;;;35.35;;
32236;SDS011;18726;44.732;10.550;2022-12-20T00:04:15;70.80;;;39.53;;
32236;SDS011;18726;44.732;10.550;2022-12-20T00:07:19;64.95;;;36.13;;
32236;SDS011;18726;44.732;10.550;2022-12-20T00:10:22;58.00;;;32.83;;
32236;SDS011;18726;44.732;10.550;2022-12-20T00:13:27;65.50;;;36.30;;
32236;SDS011;18726;44.732;10.550;2022-12-20T00:16:31;76.68;;;41.72;;
32236;SDS011;18726;44.732;10.550;2022-12-20T00:19:35;64.43;;;31.77;;
32236;SDS011;18726;44.732;10.550;2022-12-20T00:22:39;56.60;;;30.15;;
32236;SDS011;18726;44.732;10.550;2022-12-20T00:25:43;59.65;;;32.67;;
32236;SDS011;18726;44.732;10.550;2022-12-20T00:28:47;52.72;;;29.92;;
32236;SDS011;18726;44.732;10.550;2022-12-20T00:31:51;71.53;;;38.08;;
32236;SDS011;18726;44.732;10.550;2022-12-20T00:34:55;58.13;;;32.17;;
32236;SDS011;18726;44.732;10.550;2022-12-20T00:37:58;66.00;;;35.40;;
32236;SDS011;18726;44.732;10.550;2022-12-20T00:41:03;51.40;;;29.55;;
32236;SDS011;18726;44.732;10.550;2022-12-20T00:44:08;61.03;;;34.38;;
32236;SDS011;18726;44.732;10.550;2022-12-20T00:47:11;54.30;;;32.28;;
32236;SDS011;18726;44.732;10.550;2022-12-20T00:50:15;58.00;;;35.40;;
32236;SDS011;18726;44.732;10.550;2022-12-20T00:53:19;52.30;;;33.58;;
32236;SDS011;18726;44.732;10.550;2022-12-20T00:56:23;56.58;;;33.08;;
32236;SDS011;18726;44.732;10.550;2022-12-20T00:59:27;78.00;;;43.03;;
32236;SDS011;18726;44.732;10.550;2022-12-20T01:02:32;73.03;;;38.90;;
32236;SDS011;18726;44.732;10.550;2022-12-20T01:05:35;75.25;;;41.92;;
32236;SDS011;18726;44.732;10.550;2022-12-20T01:08:39;62.50;;;33.78;;
32236;SDS011;18726;44.732;10.550;2022-12-20T01:11:42;60.35;;;31.95;;
32236;SDS011;18726;44.732;10.550;2022-12-20T01:14:45;56.22;;;33.05;;
32236;SDS011;18726;44.732;10.550;2022-12-20T01:17:49;52.63;;;31.95;;
32236;SDS011;18726;44.732;10.550;2022-12-20T01:21:01;54.65;;;30.25;;
32236;SDS011;18726;44.732;10.550;2022-12-20T01:24:10;59.63;;;36.47;;
32236;SDS011;18726;44.732;10.550;2022-12-20T01:27:18;52.20;;;33.08;;
32236;SDS011;18726;44.732;10.550;2022-12-20T01:30:21;63.33;;;34.22;;
32236;SDS011;18726;44.732;10.550;2022-12-20T01:33:25;52.72;;;30.77;;
32236;SDS011;18726;44.732;10.550;2022-12-20T01:36:29;61.53;;;34.78;;
32236;SDS011;18726;44.732;10.550;2022-12-20T01:39:35;61.42;;;36.97;;
32236;SDS011;18726;44.732;10.550;2022-12-20T01:42:39;65.97;;;36.72;;
32236;SDS011;18726;44.732;10.550;2022-12-20T01:45:42;56.75;;;34.05;;
32236;SDS011;18726;44.732;10.550;2022-12-20T01:48:49;80.53;;;47.55;;
32236;SDS011;18726;44.732;10.550;2022-12-20T01:52:02;77.70;;;46.33;;
32236;SDS011;18726;44.732;10.550;2022-12-20T01:55:14;61.53;;;38.20;;
32236;SDS011;18726;44.732;10.550;2022-12-20T01:58:22;66.75;;;41.22;;
32236;SDS011;18726;44.732;10.550;2022-12-20T02:01:25;49.42;;;33.58;;
32236;SDS011;18726;44.732;10.550;2022-12-20T02:04:31;49.33;;;34.97;;
32236;SDS011;18726;44.732;10.550;2022-12-20T02:07:35;58.47;;;35.38;;
32236;SDS011;18726;44.732;10.550;2022-12-20T02:30:48;83.20;;;51.70;;
32236;SDS011;18726;44.732;10.550;2022-12-20T02:33:56;64.38;;;43.40;;
32236;SDS011;18726;44.732;10.550;2022-12-20T02:37:01;60.00;;;37.13;;
32236;SDS011;18726;44.732;10.550;2022-12-20T02:40:06;58.17;;;40.03;;
32236;SDS011;18726;44.732;10.550;2022-12-20T02:43:10;67.32;;;43.90;;
32236;SDS011;18726;44.732;10.550;2022-12-20T02:46:34;61.78;;;44.72;;
32236;SDS011;18726;44.732;10.550;2022-12-20T02:49:40;64.35;;;40.85;;
32236;SDS011;18726;44.732;10.550;2022-12-20T02:52:46;66.88;;;43.17;;
32236;SDS011;18726;44.732;10.550;2022-12-20T02:59:40;57.70;;;38.03;;
32236;SDS011;18726;44.732;10.550;2022-12-20T03:02:48;62.85;;;39.58;;
32236;SDS011;18726;44.732;10.550;2022-12-20T03:06:11;64.47;;;43.78;;
32236;SDS011;18726;44.732;10.550;2022-12-20T03:09:15;60.55;;;37.70;;
32236;SDS011;18726;44.732;10.550;2022-12-20T03:12:19;56.38;;;37.15;;
32236;SDS011;18726;44.732;10.550;2022-12-20T03:15:22;60.38;;;42.95;;
32236;SDS011;18726;44.732;10.550;2022-12-20T03:18:29;57.17;;;39.03;;
32236;SDS011;18726;44.732;10.550;2022-12-20T03:21:32;58.50;;;35.50;;
32236;SDS011;18726;44.732;10.550;2022-12-20T03:24:37;63.70;;;37.05;;
32236;SDS011;18726;44.732;10.550;2022-12-20T03:27:46;64.10;;;41.90;;
32236;SDS011;18726;44.732;10.550;2022-12-20T03:30:49;59.15;;;37.22;;
32236;SDS011;18726;44.732;10.550;2022-12-20T03:33:53;59.63;;;35.72;;
32236;SDS011;18726;44.732;10.550;2022-12-20T03:36:57;62.53;;;41.22;;
32236;SDS011;18726;44.732;10.550;2022-12-20T03:40:01;59.47;;;38.10;;
32236;SDS011;18726;44.732;10.550;2022-12-20T03:43:06;86.40;;;48.17;;
32236;SDS011;18726;44.732;10.550;2022-12-20T03:46:10;48.42;;;35.75;;
32236;SDS011;18726;44.732;10.550;2022-12-20T03:49:14;83.70;;;48.70;;
32236;SDS011;18726;44.732;10.550;2022-12-20T03:52:23;72.75;;;43.88;;
32236;SDS011;18726;44.732;10.550;2022-12-20T03:55:27;74.93;;;47.10;;
32236;SDS011;18726;44.732;10.550;2022-12-20T03:58:31;78.28;;;50.03;;
32236;SDS011;18726;44.732;10.550;2022-12-20T04:01:34;58.45;;;39.60;;
32236;SDS011;18726;44.732;10.550;2022-12-20T04:04:39;60.72;;;37.03;;
32236;SDS011;18726;44.732;10.550;2022-12-20T04:07:43;54.40;;;36.92;;
32236;SDS011;18726;44.732;10.550;2022-12-20T04:10:47;56.28;;;35.38;;
32236;SDS011;18726;44.732;10.550;2022-12-20T04:14:12;68.72;;;42.22;;
32236;SDS011;18726;44.732;10.550;2022-12-20T04:17:16;53.65;;;37.78;;
32236;SDS011;18726;44.732;10.550;2022-12-20T04:20:20;67.20;;;41.28;;
32236;SDS011;18726;44.732;10.550;2022-12-20T04:26:46;66.63;;;41.58;;
32236;SDS011;18726;44.732;10.550;2022-12-20T04:29:51;66.68;;;40.97;;
32236;SDS011;18726;44.732;10.550;2022-12-20T04:32:56;49.78;;;34.00;;
32236;SDS011;18726;44.732;10.550;2022-12-20T04:36:02;51.72;;;35.08;;
32236;SDS011;18726;44.732;10.550;2022-12-20T04:39:07;56.55;;;37.13;;
32236;SDS011;18726;44.732;10.550;2022-12-20T04:42:21;66.47;;;36.58;;
32236;SDS011;18726;44.732;10.550;2022-12-20T04:45:26;64.70;;;40.47;;
32236;SDS011;18726;44.732;10.550;2022-12-20T04:48:31;51.85;;;35.67;;
32236;SDS011;18726;44.732;10.550;2022-12-20T04:51:35;62.70;;;38.83;;
32236;SDS011;18726;44.732;10.550;2022-12-20T04:54:39;70.53;;;43.90;;
32236;SDS011;18726;44.732;10.550;2022-12-20T04:57:51;52.22;;;34.28;;
32236;SDS011;18726;44.732;10.550;2022-12-20T05:00:55;56.83;;;35.60;;
32236;SDS011;18726;44.732;10.550;2022-12-20T05:04:02;55.10;;;35.45;;
32236;SDS011;18726;44.732;10.550;2022-12-20T05:07:09;51.42;;;33.15;;
32236;SDS011;18726;44.732;10.550;2022-12-20T05:10:15;55.58;;;36.25;;
32236;SDS011;18726;44.732;10.550;2022-12-20T05:13:19;54.20;;;35.03;;
32236;SDS011;18726;44.732;10.550;2022-12-20T05:16:24;82.45;;;50.17;;
32236;SDS011;18726;44.732;10.550;2022-12-20T05:19:28;76.53;;;50.35;;
32236;SDS011;18726;44.732;10.550;2022-12-20T05:22:32;66.13;;;44.78;;
32236;SDS011;18726;44.732;10.550;2022-12-20T05:25:54;58.60;;;40.00;;
32236;SDS011;18726;44.732;10.550;2022-12-20T05:29:17;60.63;;;37.83;;
32236;SDS011;18726;44.732;10.550;2022-12-20T05:32:21;96.45;;;52.53;;
32236;SDS011;18726;44.732;10.550;2022-12-20T05:35:25;80.18;;;47.53;;
32236;SDS011;18726;44.732;10.550;2022-12-20T05:38:34;87.28;;;52.22;;
32236;SDS011;18726;44.732;10.550;2022-12-20T05:41:40;65.60;;;40.63;;
32236;SDS011;18726;44.732;10.550;2022-12-20T05:44:45;56.35;;;35.95;;
32236;SDS011;18726;44.732;10.550;2022-12-20T05:47:48;69.93;;;40.08;;
32236;SDS011;18726;44.732;10.550;2022-12-20T05:50:52;80.82;;;43.83;;
32236;SDS011;18726;44.732;10.550;2022-12-20T05:54:16;62.83;;;39.45;;
32236;SDS011;18726;44.732;10.550;2022-12-20T05:57:49;61.90;;;38.58;;
32236;SDS011;18726;44.732;10.550;2022-12-20T06:01:00;61.67;;;40.30;;
32236;SDS011;18726;44.732;10.550;2022-12-20T06:04:05;64.70;;;44.00;;
32236;SDS011;18726;44.732;10.550;2022-12-20T06:07:10;52.70;;;34.90;;
32236;SDS011;18726;44.732;10.550;2022-12-20T06:10:14;75.15;;;48.38;;
32236;SDS011;18726;44.732;10.550;2022-12-20T06:13:28;56.45;;;36.83;;
32236;SDS011;18726;44.732;10.550;2022-12-20T06:16:32;61.47;;;40.30;;
32236;SDS011;18726;44.732;10.550;2022-12-20T06:19:36;54.20;;;37.45;;
32236;SDS011;18726;44.732;10.550;2022-12-20T06:22:42;68.00;;;44.92;;
32236;SDS011;18726;44.732;10.550;2022-12-20T06:25:46;79.38;;;47.55;;
32236;SDS011;18726;44.732;10.550;2022-12-20T06:28:51;63.25;;;42.83;;
32236;SDS011;18726;44.732;10.550;2022-12-20T06:32:12;61.92;;;41.58;;
32236;SDS011;18726;44.732;10.550;2022-12-20T06:35:16;53.45;;;35.60;;
32236;SDS011;18726;44.732;10.550;2022-12-20T06:38:20;59.88;;;38.50;;
32236;SDS011;18726;44.732;10.550;2022-12-20T06:41:23;79.07;;;45.47;;
32236;SDS011;18726;44.732;10.550;2022-12-20T06:44:28;60.30;;;41.10;;
32236;SDS011;18726;44.732;10.550;2022-12-20T06:47:32;69.72;;;44.10;;
32236;SDS011;18726;44.732;10.550;2022-12-20T06:50:38;78.93;;;46.67;;
32236;SDS011;18726;44.732;10.550;2022-12-20T06:53:42;61.55;;;40.25;;
32236;SDS011;18726;44.732;10.550;2022-12-20T06:56:46;69.50;;;42.33;;
32236;SDS011;18726;44.732;10.550;2022-12-20T06:59:50;57.97;;;38.92;;
32236;SDS011;18726;44.732;10.550;2022-12-20T07:02:54;64.22;;;39.13;;
32236;SDS011;18726;44.732;10.550;2022-12-20T07:05:57;86.65;;;47.55;;
32236;SDS011;18726;44.732;10.550;2022-12-20T07:09:01;77.15;;;44.85;;
32236;SDS011;18726;44.732;10.550;2022-12-20T07:12:06;77.82;;;45.30;;
32236;SDS011;18726;44.732;10.550;2022-12-20T07:15:11;76.35;;;51.40;;
32236;SDS011;18726;44.732;10.550;2022-12-20T07:18:14;65.38;;;39.22;;
32236;SDS011;18726;44.732;10.550;2022-12-20T07:21:18;61.28;;;40.80;;
32236;SDS011;18726;44.732;10.550;2022-12-20T07:24:22;55.47;;;37.60;;
32236;SDS011;18726;44.732;10.550;2022-12-20T07:27:25;74.88;;;47.97;;
32236;SDS011;18726;44.732;10.550;2022-12-20T07:30:29;65.15;;;43.17;;
32236;SDS011;18726;44.732;10.550;2022-12-20T07:33:33;61.22;;;46.13;;
32236;SDS011;18726;44.732;10.550;2022-12-20T07:36:36;72.22;;;48.67;;
32236;SDS011;18726;44.732;10.550;2022-12-20T07:39:40;63.90;;;44.38;;
32236;SDS011;18726;44.732;10.550;2022-12-20T07:42:44;72.00;;;45.30;;
32236;SDS011;18726;44.732;10.550;2022-12-20T07:45:52;83.32;;;52.03;;
32236;SDS011;18726;44.732;10.550;2022-12-20T07:48:58;60.00;;;43.67;;
32236;SDS011;18726;44.732;10.550;2022-12-20T07:52:02;73.88;;;48.13;;
32236;SDS011;18726;44.732;10.550;2022-12-20T07:55:07;74.75;;;49.72;;
32236;SDS011;18726;44.732;10.550;2022-12-20T07:58:12;81.93;;;52.35;;
32236;SDS011;18726;44.732;10.550;2022-12-20T08:01:17;56.17;;;46.03;;
32236;SDS011;18726;44.732;10.550;2022-12-20T08:04:22;69.60;;;46.53;;
32236;SDS011;18726;44.732;10.550;2022-12-20T08:07:28;68.07;;;49.67;;
32236;SDS011;18726;44.732;10.550;2022-12-20T08:10:33;74.93;;;54.45;;
32236;SDS011;18726;44.732;10.550;2022-12-20T08:13:37;80.85;;;59.38;;
32236;SDS011;18726;44.732;10.550;2022-12-20T08:16:42;64.47;;;47.22;;
32236;SDS011;18726;44.732;10.550;2022-12-20T08:19:45;67.10;;;49.50;;
32236;SDS011;18726;44.732;10.550;2022-12-20T08:22:49;79.78;;;58.30;;
32236;SDS011;18726;44.732;10.550;2022-12-20T08:25:53;73.65;;;51.45;;
32236;SDS011;18726;44.732;10.550;2022-12-20T08:28:56;86.43;;;60.03;;
32236;SDS011;18726;44.732;10.550;2022-12-20T08:32:00;81.70;;;58.28;;
32236;SDS011;18726;44.732;10.550;2022-12-20T08:35:03;69.38;;;53.30;;
32236;SDS011;18726;44.732;10.550;2022-12-20T08:38:08;93.88;;;67.00;;
32236;SDS011;18726;44.732;10.550;2022-12-20T08:41:12;85.50;;;63.40;;
32236;SDS011;18726;44.732;10.550;2022-12-20T08:44:18;73.10;;;54.10;;
32236;SDS011;18726;44.732;10.550;2022-12-20T08:47:21;73.25;;;55.20;;
32236;SDS011;18726;44.732;10.550;2022-12-20T08:50:25;76.47;;;57.08;;
32236;SDS011;18726;44.732;10.550;2022-12-20T08:53:29;64.40;;;50.60;;
32236;SDS011;18726;44.732;10.550;2022-12-20T08:56:33;86.78;;;61.05;;
32236;SDS011;18726;44.732;10.550;2022-12-20T08:59:37;87.40;;;63.67;;
32236;SDS011;18726;44.732;10.550;2022-12-20T09:02:41;90.03;;;67.13;;
32236;SDS011;18726;44.732;10.550;2022-12-20T09:05:45;81.30;;;59.85;;
32236;SDS011;18726;44.732;10.550;2022-12-20T09:08:49;64.25;;;48.90;;
32236;SDS011;18726;44.732;10.550;2022-12-20T09:11:53;80.93;;;58.83;;
32236;SDS011;18726;44.732;10.550;2022-12-20T09:14:57;77.05;;;51.75;;
32236;SDS011;18726;44.732;10.550;2022-12-20T09:18:01;71.60;;;53.45;;
32236;SDS011;18726;44.732;10.550;2022-12-20T09:21:06;80.43;;;60.05;;
32236;SDS011;18726;44.732;10.550;2022-12-20T09:24:11;88.75;;;67.65;;
32236;SDS011;18726;44.732;10.550;2022-12-20T09:27:15;78.25;;;58.75;;
32236;SDS011;18726;44.732;10.550;2022-12-20T09:30:18;82.03;;;60.87;;
32236;SDS011;18726;44.732;10.550;2022-12-20T09:33:21;76.97;;;57.60;;
32236;SDS011;18726;44.732;10.550;2022-12-20T09:36:26;84.30;;;59.42;;
32236;SDS011;18726;44.732;10.550;2022-12-20T09:39:30;72.78;;;56.97;;
32236;SDS011;18726;44.732;10.550;2022-12-20T09:42:34;83.50;;;63.72;;
32236;SDS011;18726;44.732;10.550;2022-12-20T09:45:38;70.43;;;52.80;;
32236;SDS011;18726;44.732;10.550;2022-12-20T09:48:42;84.53;;;62.35;;
32236;SDS011;18726;44.732;10.550;2022-12-20T09:59:11;70.65;;;55.05;;
32236;SDS011;18726;44.732;10.550;2022-12-20T10:02:14;66.28;;;51.63;;
32236;SDS011;18726;44.732;10.550;2022-12-20T10:15:18;80.22;;;58.85;;
32236;SDS011;18726;44.732;10.550;2022-12-20T10:18:30;70.88;;;53.45;;
32236;SDS011;18726;44.732;10.550;2022-12-20T10:25:26;78.63;;;59.95;;
32236;SDS011;18726;44.732;10.550;2022-12-20T10:28:27;71.78;;;52.95;;
32236;SDS011;18726;44.732;10.550;2022-12-20T10:31:33;69.63;;;52.20;;
32236;SDS011;18726;44.732;10.550;2022-12-20T10:34:38;82.55;;;60.67;;
32236;SDS011;18726;44.732;10.550;2022-12-20T10:37:59;83.63;;;63.85;;
32236;SDS011;18726;44.732;10.550;2022-12-20T10:41:15;89.85;;;65.18;;
32236;SDS011;18726;44.732;10.550;2022-12-20T10:47:37;70.68;;;54.75;;
32236;SDS011;18726;44.732;10.550;2022-12-20T10:50:49;67.38;;;50.92;;
32236;SDS011;18726;44.732;10.550;2022-12-20T10:54:22;70.38;;;54.45;;
32236;SDS011;18726;44.732;10.550;2022-12-20T10:57:30;68.10;;;53.72;;
32236;SDS011;18726;44.732;10.550;2022-12-20T11:00:35;70.05;;;54.00;;
32236;SDS011;18726;44.732;10.550;2022-12-20T11:03:54;69.70;;;54.88;;
32236;SDS011;18726;44.732;10.550;2022-12-20T11:07:00;73.93;;;53.25;;
32236;SDS011;18726;44.732;10.550;2022-12-20T11:10:16;68.90;;;52.92;;
32236;SDS011;18726;44.732;10.550;2022-12-20T11:13:25;58.65;;;47.42;;
32236;SDS011;18726;44.732;10.550;2022-12-20T11:16:33;82.05;;;55.10;;
32236;SDS011;18726;44.732;10.550;2022-12-20T11:23:22;75.07;;;53.95;;
32236;SDS011;18726;44.732;10.550;2022-12-20T11:36:12;63.47;;;48.95;;
32236;SDS011;18726;44.732;10.550;2022-12-20T11:49:47;58.33;;;48.20;;
32236;SDS011;18726;44.732;10.550;2022-12-20T11:56:23;59.72;;;44.63;;
32236;SDS011;18726;44.732;10.550;2022-12-20T11:59:41;60.58;;;44.85;;
32236;SDS011;18726;44.732;10.550;2022-12-20T12:02:52;61.35;;;46.40;;
32236;SDS011;18726;44.732;10.550;2022-12-20T12:06:04;58.95;;;47.75;;
32236;SDS011;18726;44.732;10.550;2022-12-20T12:12:59;55.60;;;42.10;;
32236;SDS011;18726;44.732;10.550;2022-12-20T12:19:27;63.53;;;46.28;;
32236;SDS011;18726;44.732;10.550;2022-12-20T12:22:33;58.08;;;44.45;;
32236;SDS011;18726;44.732;10.550;2022-12-20T12:25:41;52.28;;;44.50;;
32236;SDS011;18726;44.732;10.550;2022-12-20T12:28:45;64.53;;;47.88;;
32236;SDS011;18726;44.732;10.550;2022-12-20T12:32:39;57.10;;;46.90;;
32236;SDS011;18726;44.732;10.550;2022-12-20T12:39:07;51.83;;;43.20;;
32236;SDS011;18726;44.732;10.550;2022-12-20T12:45:37;56.05;;;46.85;;
32236;SDS011;18726;44.732;10.550;2022-12-20T12:48:52;59.15;;;48.10;;
32236;SDS011;18726;44.732;10.550;2022-12-20T12:52:03;59.85;;;46.95;;
32236;SDS011;18726;44.732;10.550;2022-12-20T12:58:37;55.25;;;43.75;;
32236;SDS011;18726;44.732;10.550;2022-12-20T13:01:48;55.00;;;40.35;;
32236;SDS011;18726;44.732;10.550;2022-12-20T13:08:14;57.42;;;43.67;;
32236;SDS011;18726;44.732;10.550;2022-12-20T13:11:27;56.95;;;42.67;;
32236;SDS011;18726;44.732;10.550;2022-12-20T13:17:58;57.70;;;46.47;;
32236;SDS011;18726;44.732;10.550;2022-12-20T13:41:26;56.65;;;42.95;;
32236;SDS011;18726;44.732;10.550;2022-12-20T13:44:39;57.53;;;46.35;;
32236;SDS011;18726;44.732;10.550;2022-12-20T13:47:46;52.25;;;42.42;;
32236;SDS011;18726;44.732;10.550;2022-12-20T13:50:56;53.85;;;40.38;;
32236;SDS011;18726;44.732;10.550;2022-12-20T13:54:01;53.13;;;43.17;;
32236;SDS011;18726;44.732;10.550;2022-12-20T13:57:25;56.40;;;46.00;;
32236;SDS011;18726;44.732;10.550;2022-12-20T14:00:32;53.10;;;42.30;;
32236;SDS011;18726;44.732;10.550;2022-12-20T14:03:40;59.33;;;43.95;;
32236;SDS011;18726;44.732;10.550;2022-12-20T14:06:52;53.13;;;43.58;;
32236;SDS011;18726;44.732;10.550;2022-12-20T14:09:59;56.80;;;41.38;;
32236;SDS011;18726;44.732;10.550;2022-12-20T14:13:18;57.63;;;45.85;;
32236;SDS011;18726;44.732;10.550;2022-12-20T14:16:24;57.35;;;45.17;;
32236;SDS011;18726;44.732;10.550;2022-12-20T14:19:30;47.20;;;37.30;;
32236;SDS011;18726;44.732;10.550;2022-12-20T14:22:34;58.85;;;44.70;;
32236;SDS011;18726;44.732;10.550;2022-12-20T14:25:46;58.45;;;44.55;;
32236;SDS011;18726;44.732;10.550;2022-12-20T14:28:58;51.08;;;38.13;;
32236;SDS011;18726;44.732;10.550;2022-12-20T14:32:15;54.72;;;41.03;;
32236;SDS011;18726;44.732;10.550;2022-12-20T14:35:23;57.08;;;42.78;;
32236;SDS011;18726;44.732;10.550;2022-12-20T14:38:28;56.58;;;43.00;;
32236;SDS011;18726;44.732;10.550;2022-12-20T14:46:12;49.13;;;40.22;;
32236;SDS011;18726;44.732;10.550;2022-12-20T14:49:27;58.97;;;46.05;;
32236;SDS011;18726;44.732;10.550;2022-12-20T14:52:40;61.33;;;43.95;;
32236;SDS011;18726;44.732;10.550;2022-12-20T14:55:44;57.28;;;45.65;;
32236;SDS011;18726;44.732;10.550;2022-12-20T14:59:00;54.38;;;41.45;;
32236;SDS011;18726;44.732;10.550;2022-12-20T15:02:38;52.10;;;41.45;;
32236;SDS011;18726;44.732;10.550;2022-12-20T15:08:58;58.28;;;46.20;;
32236;SDS011;18726;44.732;10.550;2022-12-20T15:12:02;58.25;;;43.88;;
32236;SDS011;18726;44.732;10.550;2022-12-20T15:15:07;58.35;;;42.47;;
32236;SDS011;18726;44.732;10.550;2022-12-20T15:18:18;58.13;;;44.65;;
32236;SDS011;18726;44.732;10.550;2022-12-20T15:21:28;62.78;;;46.92;;
32236;SDS011;18726;44.732;10.550;2022-12-20T15:24:37;56.72;;;45.05;;
32236;SDS011;18726;44.732;10.550;2022-12-20T15:27:42;64.28;;;48.00;;
32236;SDS011;18726;44.732;10.550;2022-12-20T15:30:46;64.97;;;46.70;;
32236;SDS011;18726;44.732;10.550;2022-12-20T15:33:51;72.72;;;52.72;;
32236;SDS011;18726;44.732;10.550;2022-12-20T15:37:00;66.85;;;50.65;;
32236;SDS011;18726;44.732;10.550;2022-12-20T15:40:05;72.93;;;53.05;;
32236;SDS011;18726;44.732;10.550;2022-12-20T15:43:14;64.55;;;48.13;;
32236;SDS011;18726;44.732;10.550;2022-12-20T15:46:21;66.22;;;50.08;;
32236;SDS011;18726;44.732;10.550;2022-12-20T15:49:29;65.15;;;50.08;;
32236;SDS011;18726;44.732;10.550;2022-12-20T15:52:34;66.03;;;49.22;;
32236;SDS011;18726;44.732;10.550;2022-12-20T15:55:38;63.75;;;48.63;;
32236;SDS011;18726;44.732;10.550;2022-12-20T15:58:42;70.25;;;50.45;;
32236;SDS011;18726;44.732;10.550;2022-12-20T16:01:45;75.95;;;49.85;;
32236;SDS011;18726;44.732;10.550;2022-12-20T16:04:49;63.40;;;45.22;;
32236;SDS011;18726;44.732;10.550;2022-12-20T16:07:53;58.28;;;44.08;;
32236;SDS011;18726;44.732;10.550;2022-12-20T16:10:57;82.78;;;60.65;;
32236;SDS011;18726;44.732;10.550;2022-12-20T16:14:02;81.85;;;59.10;;
32236;SDS011;18726;44.732;10.550;2022-12-20T16:17:07;87.53;;;58.83;;
32236;SDS011;18726;44.732;10.550;2022-12-20T16:20:16;80.70;;;52.17;;
32236;SDS011;18726;44.732;10.550;2022-12-20T16:23:21;69.82;;;52.40;;
32236;SDS011;18726;44.732;10.550;2022-12-20T16:26:25;86.70;;;64.00;;
32236;SDS011;18726;44.732;10.550;2022-12-20T16:29:30;72.80;;;55.42;;
32236;SDS011;18726;44.732;10.550;2022-12-20T16:32:34;73.90;;;53.30;;
32236;SDS011;18726;44.732;10.550;2022-12-20T16:35:37;71.03;;;51.92;;
32236;SDS011;18726;44.732;10.550;2022-12-20T16:38:40;66.05;;;49.03;;
32236;SDS011;18726;44.732;10.550;2022-12-20T16:41:44;70.80;;;51.10;;
32236;SDS011;18726;44.732;10.550;2022-12-20T16:44:51;68.05;;;47.85;;
32236;SDS011;18726;44.732;10.550;2022-12-20T16:47:56;63.55;;;46.63;;
32236;SDS011;18726;44.732;10.550;2022-12-20T16:51:01;56.40;;;43.63;;
32236;SDS011;18726;44.732;10.550;2022-12-20T16:54:06;62.22;;;45.10;;
32236;SDS011;18726;44.732;10.550;2022-12-20T16:57:16;69.93;;;48.88;;
32236;SDS011;18726;44.732;10.550;2022-12-20T17:00:23;76.28;;;53.30;;
32236;SDS011;18726;44.732;10.550;2022-12-20T17:03:32;72.47;;;53.58;;
32236;SDS011;18726;44.732;10.550;2022-12-20T17:06:35;82.35;;;56.50;;
32236;SDS011;18726;44.732;10.550;2022-12-20T17:09:40;74.82;;;49.25;;
32236;SDS011;18726;44.732;10.550;2022-12-20T17:12:43;73.53;;;51.70;;
32236;SDS011;18726;44.732;10.550;2022-12-20T17:15:47;81.85;;;58.15;;
32236;SDS011;18726;44.732;10.550;2022-12-20T17:18:51;68.00;;;51.72;;
32236;SDS011;18726;44.732;10.550;2022-12-20T17:21:57;70.05;;;52.80;;
32236;SDS011;18726;44.732;10.550;2022-12-20T17:25:00;65.68;;;47.20;;
32236;SDS011;18726;44.732;10.550;2022-12-20T17:28:03;72.40;;;53.10;;
32236;SDS011;18726;44.732;10.550;2022-12-20T17:34:27;72.90;;;53.53;;
32236;SDS011;18726;44.732;10.550;2022-12-20T17:37:32;62.63;;;48.53;;
32236;SDS011;18726;44.732;10.550;2022-12-20T17:40:37;64.28;;;48.38;;
32236;SDS011;18726;44.732;10.550;2022-12-20T17:43:41;64.50;;;46.55;;
32236;SDS011;18726;44.732;10.550;2022-12-20T17:46:45;67.60;;;50.10;;
32236;SDS011;18726;44.732;10.550;2022-12-20T17:49:49;66.55;;;48.10;;
32236;SDS011;18726;44.732;10.550;2022-12-20T17:52:52;69.10;;;49.25;;
32236;SDS011;18726;44.732;10.550;2022-12-20T17:55:56;64.68;;;46.50;;
32236;SDS011;18726;44.732;10.550;2022-12-20T17:59:00;69.80;;;50.08;;
32236;SDS011;18726;44.732;10.550;2022-12-20T18:02:19;70.18;;;47.97;;
32236;SDS011;18726;44.732;10.550;2022-12-20T18:05:24;61.35;;;47.30;;
32236;SDS011;18726;44.732;10.550;2022-12-20T18:08:28;78.32;;;58.35;;
32236;SDS011;18726;44.732;10.550;2022-12-20T18:11:31;71.85;;;53.17;;
32236;SDS011;18726;44.732;10.550;2022-12-20T18:14:36;69.88;;;48.60;;
32236;SDS011;18726;44.732;10.550;2022-12-20T18:17:40;70.32;;;50.28;;
32236;SDS011;18726;44.732;10.550;2022-12-20T18:20:44;96.38;;;67.70;;
32236;SDS011;18726;44.732;10.550;2022-12-20T18:23:47;81.78;;;56.58;;
32236;SDS011;18726;44.732;10.550;2022-12-20T18:26:51;73.63;;;54.47;;
32236;SDS011;18726;44.732;10.550;2022-12-20T18:29:55;76.47;;;53.25;;
32236;SDS011;18726;44.732;10.550;2022-12-20T18:32:59;66.55;;;49.70;;
32236;SDS011;18726;44.732;10.550;2022-12-20T18:36:04;62.85;;;46.67;;
32236;SDS011;18726;44.732;10.550;2022-12-20T18:39:15;72.63;;;52.75;;
32236;SDS011;18726;44.732;10.550;2022-12-20T18:42:18;63.47;;;49.88;;
32236;SDS011;18726;44.732;10.550;2022-12-20T18:45:23;66.57;;;44.92;;
32236;SDS011;18726;44.732;10.550;2022-12-20T18:48:26;57.75;;;42.15;;
32236;SDS011;18726;44.732;10.550;2022-12-20T18:51:31;69.15;;;47.75;;
32236;SDS011;18726;44.732;10.550;2022-12-20T18:54:40;64.15;;;48.38;;
32236;SDS011;18726;44.732;10.550;2022-12-20T18:57:44;68.05;;;49.67;;
32236;SDS011;18726;44.732;10.550;2022-12-20T19:00:50;60.33;;;42.58;;
32236;SDS011;18726;44.732;10.550;2022-12-20T19:03:55;62.80;;;44.40;;
32236;SDS011;18726;44.732;10.550;2022-12-20T19:06:59;53.72;;;38.80;;
32236;SDS011;18726;44.732;10.550;2022-12-20T19:10:02;60.80;;;45.90;;
32236;SDS011;18726;44.732;10.550;2022-12-20T19:13:09;62.78;;;49.08;;
32236;SDS011;18726;44.732;10.550;2022-12-20T19:16:17;76.45;;;51.80;;
32236;SDS011;18726;44.732;10.550;2022-12-20T19:19:23;80.18;;;57.85;;
32236;SDS011;18726;44.732;10.550;2022-12-20T19:22:26;67.75;;;51.00;;
32236;SDS011;18726;44.732;10.550;2022-12-20T19:25:34;56.65;;;43.33;;
32236;SDS011;18726;44.732;10.550;2022-12-20T19:28:39;71.00;;;47.40;;
32236;SDS011;18726;44.732;10.550;2022-12-20T19:31:44;68.10;;;51.75;;
32236;SDS011;18726;44.732;10.550;2022-12-20T19:34:48;64.32;;;47.08;;
32236;SDS011;18726;44.732;10.550;2022-12-20T19:37:51;58.42;;;41.83;;
32236;SDS011;18726;44.732;10.550;2022-12-20T19:40:55;55.15;;;41.22;;
32236;SDS011;18726;44.732;10.550;2022-12-20T19:43:59;59.08;;;42.22;;
32236;SDS011;18726;44.732;10.550;2022-12-20T19:47:03;58.63;;;42.97;;
32236;SDS011;18726;44.732;10.550;2022-12-20T19:50:08;56.13;;;40.95;;
32236;SDS011;18726;44.732;10.550;2022-12-20T19:53:11;62.08;;;45.13;;
32236;SDS011;18726;44.732;10.550;2022-12-20T19:56:16;54.55;;;40.58;;
32236;SDS011;18726;44.732;10.550;2022-12-20T19:59:22;54.30;;;41.20;;
32236;SDS011;18726;44.732;10.550;2022-12-20T20:02:26;65.40;;;46.15;;
32236;SDS011;18726;44.732;10.550;2022-12-20T20:05:33;58.78;;;44.53;;
32236;SDS011;18726;44.732;10.550;2022-12-20T20:08:36;62.58;;;45.78;;